sensor_id;sensor_type;location;lat;lon;timestamp;temperature;humidity
36924;DHT22;22841;50.252;18.688;2022-08-18T00:02:06;20.70;65.70
36924;DHT22;22841;50.252;18.688;2022-08-18T00:04:34;20.70;63.30
36924;DHT22;22841;50.252;18.688;2022-08-18T00:07:05;20.70;64.20
36924;DHT22;22841;50.252;18.688;2022-08-18T00:09:34;20.70;67.90
36924;DHT22;22841;50.252;18.688;2022-08-18T00:12:03;20.60;68.10
36924;DHT22;22841;50.252;18.688;2022-08-18T00:14:31;20.60;64.90
36924;DHT22;22841;50.252;18.688;2022-08-18T00:16:57;20.60;64.40
36924;DHT22;22841;50.252;18.688;2022-08-18T00:19:24;20.60;64.30
36924;DHT22;22841;50.252;18.688;2022-08-18T00:21:50;20.60;63.50
36924;DHT22;22841;50.252;18.688;2022-08-18T00:24:16;20.60;62.40
36924;DHT22;22841;50.252;18.688;2022-08-18T00:26:42;20.60;61.40
36924;DHT22;22841;50.252;18.688;2022-08-18T00:29:08;20.40;66.90
36924;DHT22;22841;50.252;18.688;2022-08-18T00:31:34;20.20;75.20
36924;DHT22;22841;50.252;18.688;2022-08-18T00:34:01;20.20;74.50
36924;DHT22;22841;50.252;18.688;2022-08-18T00:36:27;20.30;67.20
36924;DHT22;22841;50.252;18.688;2022-08-18T00:38:56;20.30;69.40
36924;DHT22;22841;50.252;18.688;2022-08-18T00:41:22;20.30;70.00
36924;DHT22;22841;50.252;18.688;2022-08-18T00:43:52;20.30;67.40
36924;DHT22;22841;50.252;18.688;2022-08-18T00:46:25;20.40;67.90
36924;DHT22;22841;50.252;18.688;2022-08-18T00:48:51;20.40;69.50
36924;DHT22;22841;50.252;18.688;2022-08-18T00:54:00;20.20;76.70
36924;DHT22;22841;50.252;18.688;2022-08-18T00:56:32;20.20;71.10
36924;DHT22;22841;50.252;18.688;2022-08-18T00:59:10;20.30;68.50
36924;DHT22;22841;50.252;18.688;2022-08-18T01:01:40;20.30;69.60
36924;DHT22;22841;50.252;18.688;2022-08-18T01:04:13;20.20;72.00
36924;DHT22;22841;50.252;18.688;2022-08-18T01:09:15;20.30;68.00
36924;DHT22;22841;50.252;18.688;2022-08-18T01:11:42;20.20;70.10
36924;DHT22;22841;50.252;18.688;2022-08-18T01:14:09;20.10;74.10
36924;DHT22;22841;50.252;18.688;2022-08-18T01:16:41;20.10;71.70
36924;DHT22;22841;50.252;18.688;2022-08-18T01:19:27;20.10;73.90
36924;DHT22;22841;50.252;18.688;2022-08-18T01:22:35;20.10;73.10
36924;DHT22;22841;50.252;18.688;2022-08-18T01:25:03;19.90;76.10
36924;DHT22;22841;50.252;18.688;2022-08-18T01:27:50;19.90;76.60
36924;DHT22;22841;50.252;18.688;2022-08-18T01:30:16;19.90;73.80
36924;DHT22;22841;50.252;18.688;2022-08-18T01:32:43;19.80;78.10
36924;DHT22;22841;50.252;18.688;2022-08-18T01:35:14;19.80;78.10
36924;DHT22;22841;50.252;18.688;2022-08-18T01:37:42;19.80;79.10
36924;DHT22;22841;50.252;18.688;2022-08-18T01:40:10;19.80;78.00
36924;DHT22;22841;50.252;18.688;2022-08-18T01:42:37;19.80;79.50
36924;DHT22;22841;50.252;18.688;2022-08-18T01:45:05;19.70;80.30
36924;DHT22;22841;50.252;18.688;2022-08-18T01:47:34;19.70;84.00
36924;DHT22;22841;50.252;18.688;2022-08-18T01:50:01;19.70;82.70
36924;DHT22;22841;50.252;18.688;2022-08-18T01:52:28;19.70;83.50
36924;DHT22;22841;50.252;18.688;2022-08-18T01:54:55;19.60;85.10
36924;DHT22;22841;50.252;18.688;2022-08-18T01:57:23;19.70;85.20
36924;DHT22;22841;50.252;18.688;2022-08-18T01:59:50;19.70;86.80
36924;DHT22;22841;50.252;18.688;2022-08-18T02:02:21;19.70;89.20
36924;DHT22;22841;50.252;18.688;2022-08-18T02:04:51;19.70;88.80
36924;DHT22;22841;50.252;18.688;2022-08-18T02:07:20;19.60;92.30
36924;DHT22;22841;50.252;18.688;2022-08-18T02:09:46;19.60;92.60
36924;DHT22;22841;50.252;18.688;2022-08-18T02:12:12;19.60;90.60
36924;DHT22;22841;50.252;18.688;2022-08-18T02:14:39;19.70;89.70
36924;DHT22;22841;50.252;18.688;2022-08-18T02:17:07;19.70;86.80
36924;DHT22;22841;50.252;18.688;2022-08-18T02:19:35;19.70;86.90
36924;DHT22;22841;50.252;18.688;2022-08-18T02:22:02;19.60;93.40
36924;DHT22;22841;50.252;18.688;2022-08-18T02:24:28;19.50;95.10
36924;DHT22;22841;50.252;18.688;2022-08-18T02:26:54;19.40;95.10
36924;DHT22;22841;50.252;18.688;2022-08-18T02:29:20;19.50;91.00
36924;DHT22;22841;50.252;18.688;2022-08-18T02:31:46;19.60;90.60
36924;DHT22;22841;50.252;18.688;2022-08-18T02:34:14;19.50;94.30
36924;DHT22;22841;50.252;18.688;2022-08-18T02:36:40;19.40;96.00
36924;DHT22;22841;50.252;18.688;2022-08-18T02:39:06;19.50;92.30
36924;DHT22;22841;50.252;18.688;2022-08-18T02:41:32;19.50;90.70
36924;DHT22;22841;50.252;18.688;2022-08-18T02:43:59;19.40;94.80
36924;DHT22;22841;50.252;18.688;2022-08-18T02:46:26;19.40;93.70
36924;DHT22;22841;50.252;18.688;2022-08-18T02:48:52;19.50;91.00
36924;DHT22;22841;50.252;18.688;2022-08-18T02:51:19;19.50;89.90
36924;DHT22;22841;50.252;18.688;2022-08-18T02:53:46;19.50;96.60
36924;DHT22;22841;50.252;18.688;2022-08-18T02:56:21;19.50;93.60
36924;DHT22;22841;50.252;18.688;2022-08-18T02:58:56;19.50;91.00
36924;DHT22;22841;50.252;18.688;2022-08-18T03:01:25;19.50;90.20
36924;DHT22;22841;50.252;18.688;2022-08-18T03:03:52;19.60;89.80
36924;DHT22;22841;50.252;18.688;2022-08-18T03:06:19;19.60;88.20
36924;DHT22;22841;50.252;18.688;2022-08-18T03:08:46;19.60;87.80
36924;DHT22;22841;50.252;18.688;2022-08-18T03:11:23;19.50;91.00
36924;DHT22;22841;50.252;18.688;2022-08-18T03:13:50;19.40;91.60
36924;DHT22;22841;50.252;18.688;2022-08-18T03:16:17;19.40;90.80
36924;DHT22;22841;50.252;18.688;2022-08-18T03:18:43;19.40;91.50
36924;DHT22;22841;50.252;18.688;2022-08-18T03:21:14;19.40;89.40
36924;DHT22;22841;50.252;18.688;2022-08-18T03:23:40;19.50;87.50
36924;DHT22;22841;50.252;18.688;2022-08-18T03:26:07;19.40;90.40
36924;DHT22;22841;50.252;18.688;2022-08-18T03:28:38;19.30;90.80
36924;DHT22;22841;50.252;18.688;2022-08-18T03:31:06;19.40;88.30
36924;DHT22;22841;50.252;18.688;2022-08-18T03:33:33;19.40;88.30
36924;DHT22;22841;50.252;18.688;2022-08-18T03:36:06;19.20;93.20
36924;DHT22;22841;50.252;18.688;2022-08-18T03:38:34;19.30;90.40
36924;DHT22;22841;50.252;18.688;2022-08-18T03:41:00;19.40;88.90
36924;DHT22;22841;50.252;18.688;2022-08-18T03:43:27;19.30;88.10
36924;DHT22;22841;50.252;18.688;2022-08-18T03:45:53;19.40;89.40
36924;DHT22;22841;50.252;18.688;2022-08-18T03:48:20;19.30;91.50
36924;DHT22;22841;50.252;18.688;2022-08-18T03:50:47;19.30;91.30
36924;DHT22;22841;50.252;18.688;2022-08-18T03:53:13;19.30;91.80
36924;DHT22;22841;50.252;18.688;2022-08-18T03:55:40;19.30;91.90
36924;DHT22;22841;50.252;18.688;2022-08-18T03:58:06;19.10;95.40
36924;DHT22;22841;50.252;18.688;2022-08-18T04:00:37;19.00;98.40
36924;DHT22;22841;50.252;18.688;2022-08-18T04:03:03;19.00;96.50
36924;DHT22;22841;50.252;18.688;2022-08-18T04:05:29;19.10;93.60
36924;DHT22;22841;50.252;18.688;2022-08-18T04:07:55;19.00;99.80
36924;DHT22;22841;50.252;18.688;2022-08-18T04:10:23;19.00;99.90
36924;DHT22;22841;50.252;18.688;2022-08-18T04:12:49;19.00;99.90
36924;DHT22;22841;50.252;18.688;2022-08-18T04:15:16;19.00;99.90
36924;DHT22;22841;50.252;18.688;2022-08-18T04:17:42;19.10;98.70
36924;DHT22;22841;50.252;18.688;2022-08-18T04:20:11;19.20;94.60
36924;DHT22;22841;50.252;18.688;2022-08-18T04:22:38;19.20;96.70
36924;DHT22;22841;50.252;18.688;2022-08-18T04:25:06;19.30;94.90
36924;DHT22;22841;50.252;18.688;2022-08-18T04:27:34;19.30;93.50
36924;DHT22;22841;50.252;18.688;2022-08-18T04:30:01;19.30;93.80
36924;DHT22;22841;50.252;18.688;2022-08-18T04:32:29;19.40;96.00
36924;DHT22;22841;50.252;18.688;2022-08-18T04:34:56;19.40;99.90
36924;DHT22;22841;50.252;18.688;2022-08-18T04:37:22;19.40;96.50
36924;DHT22;22841;50.252;18.688;2022-08-18T04:39:49;19.50;94.60
36924;DHT22;22841;50.252;18.688;2022-08-18T04:42:15;19.60;93.30
36924;DHT22;22841;50.252;18.688;2022-08-18T04:44:41;19.60;92.80
36924;DHT22;22841;50.252;18.688;2022-08-18T04:47:08;19.60;92.20
36924;DHT22;22841;50.252;18.688;2022-08-18T04:49:35;19.60;96.30
36924;DHT22;22841;50.252;18.688;2022-08-18T04:52:05;19.70;94.30
36924;DHT22;22841;50.252;18.688;2022-08-18T04:54:50;19.70;99.90
36924;DHT22;22841;50.252;18.688;2022-08-18T04:57:18;19.80;99.90
36924;DHT22;22841;50.252;18.688;2022-08-18T04:59:49;19.80;99.90
36924;DHT22;22841;50.252;18.688;2022-08-18T05:02:16;19.80;99.90
36924;DHT22;22841;50.252;18.688;2022-08-18T05:04:45;19.90;98.40
36924;DHT22;22841;50.252;18.688;2022-08-18T05:07:13;19.80;97.60
36924;DHT22;22841;50.252;18.688;2022-08-18T05:09:40;19.90;96.10
36924;DHT22;22841;50.252;18.688;2022-08-18T05:12:09;20.00;99.90
36924;DHT22;22841;50.252;18.688;2022-08-18T05:14:37;19.90;99.90
36924;DHT22;22841;50.252;18.688;2022-08-18T05:17:04;20.10;99.90
36924;DHT22;22841;50.252;18.688;2022-08-18T05:19:30;20.00;99.90
36924;DHT22;22841;50.252;18.688;2022-08-18T05:21:58;20.10;99.90
36924;DHT22;22841;50.252;18.688;2022-08-18T05:24:25;20.10;99.90
36924;DHT22;22841;50.252;18.688;2022-08-18T05:26:53;20.20;99.90
36924;DHT22;22841;50.252;18.688;2022-08-18T05:29:21;20.30;99.90
36924;DHT22;22841;50.252;18.688;2022-08-18T05:31:49;20.30;99.90
36924;DHT22;22841;50.252;18.688;2022-08-18T05:34:17;20.30;99.70
36924;DHT22;22841;50.252;18.688;2022-08-18T05:37:08;20.40;99.90
36924;DHT22;22841;50.252;18.688;2022-08-18T05:39:41;20.40;99.90
36924;DHT22;22841;50.252;18.688;2022-08-18T05:42:15;20.50;99.90
36924;DHT22;22841;50.252;18.688;2022-08-18T05:44:49;20.60;99.90
36924;DHT22;22841;50.252;18.688;2022-08-18T05:47:25;20.70;99.90
36924;DHT22;22841;50.252;18.688;2022-08-18T05:49:54;20.70;99.90
36924;DHT22;22841;50.252;18.688;2022-08-18T05:55:09;20.80;98.90
36924;DHT22;22841;50.252;18.688;2022-08-18T05:58:24;20.90;96.90
36924;DHT22;22841;50.252;18.688;2022-08-18T06:00:55;20.90;96.50
36924;DHT22;22841;50.252;18.688;2022-08-18T06:03:48;20.90;96.40
36924;DHT22;22841;50.252;18.688;2022-08-18T06:06:20;21.00;96.30
36924;DHT22;22841;50.252;18.688;2022-08-18T06:08:55;21.00;97.40
36924;DHT22;22841;50.252;18.688;2022-08-18T06:11:23;21.00;98.50
36924;DHT22;22841;50.252;18.688;2022-08-18T06:13:50;21.20;98.90
36924;DHT22;22841;50.252;18.688;2022-08-18T06:16:36;21.30;97.70
36924;DHT22;22841;50.252;18.688;2022-08-18T06:21:54;21.50;91.30
36924;DHT22;22841;50.252;18.688;2022-08-18T06:24:35;21.60;91.20
36924;DHT22;22841;50.252;18.688;2022-08-18T06:27:26;21.70;86.30
36924;DHT22;22841;50.252;18.688;2022-08-18T06:35:38;21.90;75.90
36924;DHT22;22841;50.252;18.688;2022-08-18T06:41:18;22.10;74.40
36924;DHT22;22841;50.252;18.688;2022-08-18T06:47:32;22.30;45.80
36924;DHT22;22841;50.252;18.688;2022-08-18T06:50:19;22.40;37.20
36924;DHT22;22841;50.252;18.688;2022-08-18T06:52:54;22.50;30.80
36924;DHT22;22841;50.252;18.688;2022-08-18T06:55:35;22.60;37.70
36924;DHT22;22841;50.252;18.688;2022-08-18T06:58:04;22.70;22.80
36924;DHT22;22841;50.252;18.688;2022-08-18T07:00:34;22.70;3.70
36924;DHT22;22841;50.252;18.688;2022-08-18T07:03:12;22.80;7.50
36924;DHT22;22841;50.252;18.688;2022-08-18T07:08:38;23.10;1.00
36924;DHT22;22841;50.252;18.688;2022-08-18T07:11:30;23.20;1.00
36924;DHT22;22841;50.252;18.688;2022-08-18T07:14:21;23.30;1.00
36924;DHT22;22841;50.252;18.688;2022-08-18T07:16:46;23.30;1.00
36924;DHT22;22841;50.252;18.688;2022-08-18T07:19:18;23.50;99.90
36924;DHT22;22841;50.252;18.688;2022-08-18T07:24:47;23.70;99.90
36924;DHT22;22841;50.252;18.688;2022-08-18T07:27:20;23.80;99.90
36924;DHT22;22841;50.252;18.688;2022-08-18T07:32:45;24.10;99.90
36924;DHT22;22841;50.252;18.688;2022-08-18T07:35:21;24.10;99.90
36924;DHT22;22841;50.252;18.688;2022-08-18T07:37:55;24.10;99.90
36924;DHT22;22841;50.252;18.688;2022-08-18T07:40:26;24.30;99.90
36924;DHT22;22841;50.252;18.688;2022-08-18T07:43:20;24.30;84.70
36924;DHT22;22841;50.252;18.688;2022-08-18T07:45:47;24.40;99.90
36924;DHT22;22841;50.252;18.688;2022-08-18T07:48:16;24.60;99.90
36924;DHT22;22841;50.252;18.688;2022-08-18T07:50:58;24.60;1.00
36924;DHT22;22841;50.252;18.688;2022-08-18T07:53:53;24.80;1.00
36924;DHT22;22841;50.252;18.688;2022-08-18T07:59:00;25.00;99.90
36924;DHT22;22841;50.252;18.688;2022-08-18T08:01:42;25.20;51.70
36924;DHT22;22841;50.252;18.688;2022-08-18T08:04:23;25.20;1.00
36924;DHT22;22841;50.252;18.688;2022-08-18T08:06:57;25.30;99.90
36924;DHT22;22841;50.252;18.688;2022-08-18T08:15:25;25.70;99.90
36924;DHT22;22841;50.252;18.688;2022-08-18T08:18:12;25.80;99.90
36924;DHT22;22841;50.252;18.688;2022-08-18T08:20:54;25.90;99.90
36924;DHT22;22841;50.252;18.688;2022-08-18T08:32:09;26.20;99.90
36924;DHT22;22841;50.252;18.688;2022-08-18T08:34:54;26.30;1.00
36924;DHT22;22841;50.252;18.688;2022-08-18T08:40:18;26.20;1.00
36924;DHT22;22841;50.252;18.688;2022-08-18T08:43:01;26.30;44.30
36924;DHT22;22841;50.252;18.688;2022-08-18T08:45:32;26.40;99.90
36924;DHT22;22841;50.252;18.688;2022-08-18T08:48:14;26.50;1.00
36924;DHT22;22841;50.252;18.688;2022-08-18T08:50:44;26.50;1.00
36924;DHT22;22841;50.252;18.688;2022-08-18T08:55:49;26.50;99.90
36924;DHT22;22841;50.252;18.688;2022-08-18T08:58:33;26.60;1.00
36924;DHT22;22841;50.252;18.688;2022-08-18T09:01:03;26.70;99.90
36924;DHT22;22841;50.252;18.688;2022-08-18T09:11:55;27.10;19.80
36924;DHT22;22841;50.252;18.688;2022-08-18T09:14:47;27.20;99.90
36924;DHT22;22841;50.252;18.688;2022-08-18T09:23:41;27.50;1.00
36924;DHT22;22841;50.252;18.688;2022-08-18T09:25:44;27.60;99.90
36924;DHT22;22841;50.252;18.688;2022-08-18T09:28:22;27.60;99.90
36924;DHT22;22841;50.252;18.688;2022-08-18T09:39:40;27.90;99.90
36924;DHT22;22841;50.252;18.688;2022-08-18T09:42:33;28.00;99.90
36924;DHT22;22841;50.252;18.688;2022-08-18T09:45:09;28.10;99.90
36924;DHT22;22841;50.252;18.688;2022-08-18T09:55:05;28.30;68.50
36924;DHT22;22841;50.252;18.688;2022-08-18T09:57:36;28.40;72.30
36924;DHT22;22841;50.252;18.688;2022-08-18T10:16:16;28.60;1.00
36924;DHT22;22841;50.252;18.688;2022-08-18T10:19:17;28.70;1.00
36924;DHT22;22841;50.252;18.688;2022-08-18T10:24:32;28.70;99.90
36924;DHT22;22841;50.252;18.688;2022-08-18T10:27:02;28.80;99.90
36924;DHT22;22841;50.252;18.688;2022-08-18T10:34:48;28.60;99.90
36924;DHT22;22841;50.252;18.688;2022-08-18T10:37:37;28.60;99.90
36924;DHT22;22841;50.252;18.688;2022-08-18T10:45:11;28.60;99.90
36924;DHT22;22841;50.252;18.688;2022-08-18T10:47:39;28.60;99.90
36924;DHT22;22841;50.252;18.688;2022-08-18T10:50:20;28.60;99.90
36924;DHT22;22841;50.252;18.688;2022-08-18T10:55:31;28.70;99.90
36924;DHT22;22841;50.252;18.688;2022-08-18T10:58:22;28.70;99.90
36924;DHT22;22841;50.252;18.688;2022-08-18T11:06:23;28.80;99.90
36924;DHT22;22841;50.252;18.688;2022-08-18T11:08:54;28.80;99.90
36924;DHT22;22841;50.252;18.688;2022-08-18T11:11:37;28.90;99.90
36924;DHT22;22841;50.252;18.688;2022-08-18T11:19:38;29.10;99.90
36924;DHT22;22841;50.252;18.688;2022-08-18T11:22:05;29.00;99.90
36924;DHT22;22841;50.252;18.688;2022-08-18T11:24:32;29.00;99.90
36924;DHT22;22841;50.252;18.688;2022-08-18T11:27:01;29.10;99.90
36924;DHT22;22841;50.252;18.688;2022-08-18T11:29:39;29.10;99.90
36924;DHT22;22841;50.252;18.688;2022-08-18T11:32:32;29.20;99.90
36924;DHT22;22841;50.252;18.688;2022-08-18T11:45:33;29.20;99.90
36924;DHT22;22841;50.252;18.688;2022-08-18T11:59:00;29.50;99.90
36924;DHT22;22841;50.252;18.688;2022-08-18T12:01:31;29.50;99.90
36924;DHT22;22841;50.252;18.688;2022-08-18T12:06:53;29.50;99.90
36924;DHT22;22841;50.252;18.688;2022-08-18T12:09:28;29.50;99.90
36924;DHT22;22841;50.252;18.688;2022-08-18T12:12:18;29.60;99.90
36924;DHT22;22841;50.252;18.688;2022-08-18T12:17:36;29.60;99.90
36924;DHT22;22841;50.252;18.688;2022-08-18T12:20:03;29.70;99.90
36924;DHT22;22841;50.252;18.688;2022-08-18T12:22:34;29.90;99.90
36924;DHT22;22841;50.252;18.688;2022-08-18T12:25:02;30.00;99.90
36924;DHT22;22841;50.252;18.688;2022-08-18T12:27:29;30.30;98.80
36924;DHT22;22841;50.252;18.688;2022-08-18T12:29:58;30.50;82.10
36924;DHT22;22841;50.252;18.688;2022-08-18T12:32:30;30.60;66.00
36924;DHT22;22841;50.252;18.688;2022-08-18T12:34:58;30.80;65.70
36924;DHT22;22841;50.252;18.688;2022-08-18T12:37:26;30.80;40.20
36924;DHT22;22841;50.252;18.688;2022-08-18T12:39:54;30.80;29.10
36924;DHT22;22841;50.252;18.688;2022-08-18T12:42:20;30.70;26.90
36924;DHT22;22841;50.252;18.688;2022-08-18T12:44:47;30.70;21.20
36924;DHT22;22841;50.252;18.688;2022-08-18T12:47:18;30.60;26.10
36924;DHT22;22841;50.252;18.688;2022-08-18T12:49:46;30.60;31.40
36924;DHT22;22841;50.252;18.688;2022-08-18T12:52:12;30.40;29.30
36924;DHT22;22841;50.252;18.688;2022-08-18T12:54:39;30.40;23.00
36924;DHT22;22841;50.252;18.688;2022-08-18T12:57:21;30.30;21.20
36924;DHT22;22841;50.252;18.688;2022-08-18T12:59:48;30.30;17.30
36924;DHT22;22841;50.252;18.688;2022-08-18T13:02:14;30.30;14.30
36924;DHT22;22841;50.252;18.688;2022-08-18T13:04:40;30.40;8.00
36924;DHT22;22841;50.252;18.688;2022-08-18T13:07:06;30.30;2.60
36924;DHT22;22841;50.252;18.688;2022-08-18T13:09:34;30.40;1.00
36924;DHT22;22841;50.252;18.688;2022-08-18T13:12:00;30.40;5.20
36924;DHT22;22841;50.252;18.688;2022-08-18T13:14:26;30.40;1.00
36924;DHT22;22841;50.252;18.688;2022-08-18T13:16:53;30.50;1.00
36924;DHT22;22841;50.252;18.688;2022-08-18T13:19:20;30.50;1.00
36924;DHT22;22841;50.252;18.688;2022-08-18T13:21:46;30.50;1.00
36924;DHT22;22841;50.252;18.688;2022-08-18T13:24:12;30.50;1.00
36924;DHT22;22841;50.252;18.688;2022-08-18T13:26:41;30.50;1.00
36924;DHT22;22841;50.252;18.688;2022-08-18T13:29:08;30.50;1.00
36924;DHT22;22841;50.252;18.688;2022-08-18T13:31:35;30.40;1.00
36924;DHT22;22841;50.252;18.688;2022-08-18T13:34:03;30.40;1.00
36924;DHT22;22841;50.252;18.688;2022-08-18T13:36:32;30.50;1.00
36924;DHT22;22841;50.252;18.688;2022-08-18T13:39:14;30.50;1.00
36924;DHT22;22841;50.252;18.688;2022-08-18T13:41:41;30.50;1.00
36924;DHT22;22841;50.252;18.688;2022-08-18T13:44:12;30.50;1.00
36924;DHT22;22841;50.252;18.688;2022-08-18T13:46:40;30.50;1.00
36924;DHT22;22841;50.252;18.688;2022-08-18T13:49:19;30.50;1.00
36924;DHT22;22841;50.252;18.688;2022-08-18T13:51:47;30.50;1.00
36924;DHT22;22841;50.252;18.688;2022-08-18T13:54:25;30.50;1.00
36924;DHT22;22841;50.252;18.688;2022-08-18T13:56:52;30.40;1.00
36924;DHT22;22841;50.252;18.688;2022-08-18T13:59:19;30.50;1.00
36924;DHT22;22841;50.252;18.688;2022-08-18T14:01:47;30.50;1.00
36924;DHT22;22841;50.252;18.688;2022-08-18T14:04:14;30.40;1.00
36924;DHT22;22841;50.252;18.688;2022-08-18T14:06:41;30.30;1.00
36924;DHT22;22841;50.252;18.688;2022-08-18T14:09:07;30.30;1.00
36924;DHT22;22841;50.252;18.688;2022-08-18T14:11:34;30.20;1.00
36924;DHT22;22841;50.252;18.688;2022-08-18T14:14:02;30.20;1.00
36924;DHT22;22841;50.252;18.688;2022-08-18T14:16:31;30.10;1.00
36924;DHT22;22841;50.252;18.688;2022-08-18T14:18:58;30.10;1.00
36924;DHT22;22841;50.252;18.688;2022-08-18T14:21:48;30.00;1.00
36924;DHT22;22841;50.252;18.688;2022-08-18T14:24:34;30.00;1.00
36924;DHT22;22841;50.252;18.688;2022-08-18T14:27:25;30.00;1.00
36924;DHT22;22841;50.252;18.688;2022-08-18T14:29:53;30.00;1.00
36924;DHT22;22841;50.252;18.688;2022-08-18T14:32:22;29.90;1.00
36924;DHT22;22841;50.252;18.688;2022-08-18T14:34:48;29.90;1.00
36924;DHT22;22841;50.252;18.688;2022-08-18T14:37:14;29.90;1.00
36924;DHT22;22841;50.252;18.688;2022-08-18T14:39:41;29.90;1.00
36924;DHT22;22841;50.252;18.688;2022-08-18T14:42:08;30.00;1.00
36924;DHT22;22841;50.252;18.688;2022-08-18T14:44:36;30.00;1.00
36924;DHT22;22841;50.252;18.688;2022-08-18T14:47:02;30.00;1.00
36924;DHT22;22841;50.252;18.688;2022-08-18T14:49:28;30.00;1.00
36924;DHT22;22841;50.252;18.688;2022-08-18T14:51:59;30.00;1.00
36924;DHT22;22841;50.252;18.688;2022-08-18T14:54:28;30.00;1.00
36924;DHT22;22841;50.252;18.688;2022-08-18T14:56:54;29.90;1.00
36924;DHT22;22841;50.252;18.688;2022-08-18T14:59:20;29.90;1.00
36924;DHT22;22841;50.252;18.688;2022-08-18T15:01:47;29.90;1.00
36924;DHT22;22841;50.252;18.688;2022-08-18T15:04:14;29.90;1.00
36924;DHT22;22841;50.252;18.688;2022-08-18T15:06:41;29.90;1.00
36924;DHT22;22841;50.252;18.688;2022-08-18T15:09:08;29.90;1.00
36924;DHT22;22841;50.252;18.688;2022-08-18T15:11:34;29.90;1.00
36924;DHT22;22841;50.252;18.688;2022-08-18T15:14:00;29.80;1.00
36924;DHT22;22841;50.252;18.688;2022-08-18T15:16:26;29.70;1.00
36924;DHT22;22841;50.252;18.688;2022-08-18T15:18:53;29.70;1.00
36924;DHT22;22841;50.252;18.688;2022-08-18T15:21:19;29.70;1.00
36924;DHT22;22841;50.252;18.688;2022-08-18T15:24:04;29.60;1.00
36924;DHT22;22841;50.252;18.688;2022-08-18T15:26:52;29.60;1.00
36924;DHT22;22841;50.252;18.688;2022-08-18T15:29:18;29.60;1.00
36924;DHT22;22841;50.252;18.688;2022-08-18T15:31:44;29.50;1.00
36924;DHT22;22841;50.252;18.688;2022-08-18T15:34:11;29.50;1.00
36924;DHT22;22841;50.252;18.688;2022-08-18T15:36:37;29.50;1.00
36924;DHT22;22841;50.252;18.688;2022-08-18T15:39:04;29.40;1.00
36924;DHT22;22841;50.252;18.688;2022-08-18T15:41:40;29.40;1.00
36924;DHT22;22841;50.252;18.688;2022-08-18T15:44:07;29.40;1.00
36924;DHT22;22841;50.252;18.688;2022-08-18T15:46:36;29.30;1.00
36924;DHT22;22841;50.252;18.688;2022-08-18T15:49:03;29.30;1.00
36924;DHT22;22841;50.252;18.688;2022-08-18T15:51:34;29.30;1.00
36924;DHT22;22841;50.252;18.688;2022-08-18T15:54:01;29.30;1.00
36924;DHT22;22841;50.252;18.688;2022-08-18T15:56:28;29.20;1.00
36924;DHT22;22841;50.252;18.688;2022-08-18T15:58:56;29.20;1.00
36924;DHT22;22841;50.252;18.688;2022-08-18T16:01:24;29.20;1.00
36924;DHT22;22841;50.252;18.688;2022-08-18T16:03:51;29.20;1.00
36924;DHT22;22841;50.252;18.688;2022-08-18T16:06:22;29.10;1.00
36924;DHT22;22841;50.252;18.688;2022-08-18T16:08:52;29.10;1.00
36924;DHT22;22841;50.252;18.688;2022-08-18T16:11:19;29.00;1.00
36924;DHT22;22841;50.252;18.688;2022-08-18T16:13:47;28.90;1.00
36924;DHT22;22841;50.252;18.688;2022-08-18T16:16:20;28.90;1.00
36924;DHT22;22841;50.252;18.688;2022-08-18T16:18:47;28.80;1.00
36924;DHT22;22841;50.252;18.688;2022-08-18T16:21:16;28.80;1.00
36924;DHT22;22841;50.252;18.688;2022-08-18T16:23:46;28.70;1.00
36924;DHT22;22841;50.252;18.688;2022-08-18T16:26:14;28.70;1.00
36924;DHT22;22841;50.252;18.688;2022-08-18T16:28:42;28.60;1.00
36924;DHT22;22841;50.252;18.688;2022-08-18T16:31:08;28.60;1.00
36924;DHT22;22841;50.252;18.688;2022-08-18T16:33:35;28.50;1.00
36924;DHT22;22841;50.252;18.688;2022-08-18T16:36:03;28.40;1.00
36924;DHT22;22841;50.252;18.688;2022-08-18T16:38:30;28.40;1.00
36924;DHT22;22841;50.252;18.688;2022-08-18T16:40:56;28.30;1.00
36924;DHT22;22841;50.252;18.688;2022-08-18T16:43:22;28.30;1.00
36924;DHT22;22841;50.252;18.688;2022-08-18T16:45:48;28.30;1.00
36924;DHT22;22841;50.252;18.688;2022-08-18T16:48:17;28.30;1.00
36924;DHT22;22841;50.252;18.688;2022-08-18T16:50:43;28.20;1.00
36924;DHT22;22841;50.252;18.688;2022-08-18T16:53:11;28.10;1.00
36924;DHT22;22841;50.252;18.688;2022-08-18T16:55:37;28.10;1.00
36924;DHT22;22841;50.252;18.688;2022-08-18T16:58:04;28.00;1.00
36924;DHT22;22841;50.252;18.688;2022-08-18T17:00:49;27.90;1.00
36924;DHT22;22841;50.252;18.688;2022-08-18T17:03:33;27.90;1.00
36924;DHT22;22841;50.252;18.688;2022-08-18T17:06:18;27.80;1.00
36924;DHT22;22841;50.252;18.688;2022-08-18T17:08:44;27.70;1.00
36924;DHT22;22841;50.252;18.688;2022-08-18T17:11:14;27.60;1.00
36924;DHT22;22841;50.252;18.688;2022-08-18T17:13:41;27.50;2.10
36924;DHT22;22841;50.252;18.688;2022-08-18T17:16:08;27.40;9.90
36924;DHT22;22841;50.252;18.688;2022-08-18T17:18:35;27.30;20.70
36924;DHT22;22841;50.252;18.688;2022-08-18T17:21:03;27.10;38.40
36924;DHT22;22841;50.252;18.688;2022-08-18T17:23:30;27.10;36.30
36924;DHT22;22841;50.252;18.688;2022-08-18T17:25:57;27.00;56.20
36924;DHT22;22841;50.252;18.688;2022-08-18T17:28:31;26.90;79.80
36924;DHT22;22841;50.252;18.688;2022-08-18T17:31:00;26.80;99.90
36924;DHT22;22841;50.252;18.688;2022-08-18T17:33:31;26.70;99.90
36924;DHT22;22841;50.252;18.688;2022-08-18T17:35:58;26.60;99.90
36924;DHT22;22841;50.252;18.688;2022-08-18T17:38:57;26.50;99.90
36924;DHT22;22841;50.252;18.688;2022-08-18T17:41:24;26.40;99.90
36924;DHT22;22841;50.252;18.688;2022-08-18T17:43:54;26.30;99.90
36924;DHT22;22841;50.252;18.688;2022-08-18T17:46:27;26.20;99.90
36924;DHT22;22841;50.252;18.688;2022-08-18T17:49:09;26.20;1.00
36924;DHT22;22841;50.252;18.688;2022-08-18T17:51:42;26.10;7.80
36924;DHT22;22841;50.252;18.688;2022-08-18T17:54:35;26.00;58.90
36924;DHT22;22841;50.252;18.688;2022-08-18T17:57:18;26.00;1.00
36924;DHT22;22841;50.252;18.688;2022-08-18T18:02:32;25.80;99.90
36924;DHT22;22841;50.252;18.688;2022-08-18T18:05:03;25.70;79.10
36924;DHT22;22841;50.252;18.688;2022-08-18T18:07:37;25.70;99.90
36924;DHT22;22841;50.252;18.688;2022-08-18T18:10:35;25.60;1.00
36924;DHT22;22841;50.252;18.688;2022-08-18T18:15:53;25.40;1.00
36924;DHT22;22841;50.252;18.688;2022-08-18T18:18:41;25.30;23.60
36924;DHT22;22841;50.252;18.688;2022-08-18T18:23:48;25.20;99.90
36924;DHT22;22841;50.252;18.688;2022-08-18T18:26:27;25.10;99.90
36924;DHT22;22841;50.252;18.688;2022-08-18T18:29:13;25.00;99.90